Time;durP1;ratioP1;P1;durP2;ratioP2;P2;SDS_P1;SDS_P2;PMS_P1;PMS_P2;Temp;Humidity;BMP_temperature;BMP_pressure;BME280_temperature;BME280_humidity;BME280_pressure;Samples;Min_cycle;Max_cycle;Signal;HPM_P1;HPM_P2
2021/05/28 00:00:37;;;;;;;1.30;1.20;;;14.60;99.90;;;;;;5028883;28;20460;-81
2021/05/28 00:03:04;;;;;;;2.90;1.50;;;14.60;99.90;;;;;;5020543;28;20446;-78
2021/05/28 00:05:32;;;;;;;2.60;1.47;;;14.60;99.90;;;;;;5029190;28;20462;-79
2021/05/28 00:08:00;;;;;;;2.03;1.60;;;14.60;99.90;;;;;;5030787;28;20452;-76
2021/05/28 00:10:28;;;;;;;1.90;1.30;;;14.50;99.90;;;;;;5031255;28;20457;-78
2021/05/28 00:12:57;;;;;;;1.73;1.63;;;14.50;1.00;;;;;;5030136;28;20461;-79
2021/05/28 00:15:24;;;;;;;1.63;1.53;;;14.40;1.00;;;;;;5031107;28;20492;-78
2021/05/28 00:17:52;;;;;;;2.20;1.60;;;14.40;1.00;;;;;;5028599;28;20476;-78
2021/05/28 00:20:20;;;;;;;1.80;1.70;;;14.30;1.00;;;;;;5022108;28;20551;-79
2021/05/28 00:22:47;;;;;;;1.77;1.67;;;14.30;1.00;;;;;;5031176;28;20505;-80
2021/05/28 00:25:15;;;;;;;1.97;1.87;;;14.30;1.00;;;;;;5030282;28;20456;-79
2021/05/28 00:27:44;;;;;;;2.33;2.13;;;14.20;1.00;;;;;;5031282;28;20771;-79
2021/05/28 00:30:13;;;;;;;2.53;2.33;;;14.20;1.00;;;;;;5028628;28;21012;-78
2021/05/28 00:32:41;;;;;;;2.50;2.30;;;14.20;1.00;;;;;;5030224;28;20501;-78
2021/05/28 00:35:10;;;;;;;4.03;3.60;;;14.20;1.00;;;;;;5025508;28;20484;-77
2021/05/28 00:37:38;;;;;;;3.70;3.40;;;14.20;1.00;;;;;;5025731;28;20478;-78
2021/05/28 00:40:07;;;;;;;3.87;3.47;;;14.10;1.00;;;;;;5023384;28;20466;-76
2021/05/28 00:42:35;;;;;;;4.40;3.93;;;14.10;12.50;;;;;;5032576;28;20515;-78
2021/05/28 00:45:04;;;;;;;4.27;3.90;;;14.10;39.00;;;;;;5033375;28;20474;-78
2021/05/28 00:47:32;;;;;;;4.37;3.97;;;14.10;52.20;;;;;;5034117;28;20507;-79
2021/05/28 00:50:00;;;;;;;5.20;4.00;;;14.10;73.90;;;;;;5030070;28;20451;-77
2021/05/28 00:52:28;;;;;;;4.07;3.70;;;14.20;99.90;;;;;;5028315;28;20482;-78
2021/05/28 00:54:55;;;;;;;5.03;4.53;;;14.10;99.90;;;;;;5030954;28;20485;-79
2021/05/28 00:57:26;;;;;;;4.40;4.00;;;14.20;99.90;;;;;;5032917;28;20451;-81
2021/05/28 00:59:57;;;;;;;5.10;4.70;;;14.20;99.90;;;;;;5033928;28;20521;-77
2021/05/28 01:02:25;;;;;;;5.07;4.33;;;14.20;99.90;;;;;;5035011;28;20453;-80
2021/05/28 01:04:54;;;;;;;4.30;3.53;;;14.10;99.90;;;;;;5033936;28;20566;-80
2021/05/28 01:07:22;;;;;;;4.30;3.97;;;14.20;57.70;;;;;;5033450;28;20454;-79
2021/05/28 01:09:49;;;;;;;4.53;3.80;;;14.10;8.10;;;;;;5031022;28;20454;-79
2021/05/28 01:12:17;;;;;;;3.97;2.33;;;14.10;1.00;;;;;;5031596;28;20456;-77
2021/05/28 01:14:45;;;;;;;3.10;2.50;;;14.10;1.00;;;;;;5024525;28;20833;-79
2021/05/28 01:17:12;;;;;;;3.20;2.80;;;14.10;1.00;;;;;;5033665;28;20453;-79
2021/05/28 01:19:40;;;;;;;2.83;2.33;;;14.10;1.00;;;;;;5032901;28;21125;-80
2021/05/28 01:22:09;;;;;;;2.77;2.60;;;14.10;1.00;;;;;;5034118;28;20783;-79
2021/05/28 01:24:37;;;;;;;2.83;2.37;;;14.10;1.00;;;;;;5033414;28;20824;-78
2021/05/28 01:27:05;;;;;;;3.10;1.97;;;14.10;1.00;;;;;;5031665;28;21040;-79
2021/05/28 01:29:33;;;;;;;2.77;2.00;;;14.10;1.00;;;;;;5032925;28;20453;-79
2021/05/28 01:32:00;;;;;;;3.93;2.33;;;14.10;1.00;;;;;;5027986;28;20536;-79
2021/05/28 01:34:28;;;;;;;2.27;2.00;;;14.10;1.00;;;;;;5034069;28;20671;-78
2021/05/28 01:36:56;;;;;;;1.87;1.77;;;14.10;1.00;;;;;;5033798;28;20445;-79
2021/05/28 01:39:24;;;;;;;1.70;1.60;;;14.10;1.00;;;;;;5033265;28;20979;-78
2021/05/28 01:41:52;;;;;;;2.30;2.10;;;14.10;1.00;;;;;;5032293;28;20453;-78
2021/05/28 01:44:20;;;;;;;3.60;2.30;;;14.10;1.00;;;;;;5033878;28;20477;-79
2021/05/28 01:46:48;;;;;;;3.00;2.03;;;14.00;1.00;;;;;;5027065;28;20477;-80
2021/05/28 01:49:17;;;;;;;2.03;1.87;;;14.00;1.00;;;;;;5018641;28;20458;-79
2021/05/28 01:51:50;;;;;;;2.13;1.93;;;14.00;1.00;;;;;;5030713;28;20447;-79
2021/05/28 01:54:18;;;;;;;2.10;1.73;;;14.00;1.00;;;;;;5031998;28;20493;-80
2021/05/28 01:56:47;;;;;;;1.60;1.50;;;14.00;1.00;;;;;;5032363;28;20506;-79
2021/05/28 01:59:22;;;;;;;1.53;1.43;;;14.00;1.00;;;;;;5032749;28;20534;-78
2021/05/28 02:01:50;;;;;;;1.90;1.80;;;14.00;99.90;;;;;;5033640;28;20454;-79
2021/05/28 02:04:18;;;;;;;1.70;1.60;;;14.00;99.90;;;;;;5033432;28;20537;-79
2021/05/28 02:06:46;;;;;;;2.23;2.10;;;13.90;99.90;;;;;;5028530;28;20466;-79
2021/05/28 02:09:13;;;;;;;1.87;1.70;;;14.00;99.90;;;;;;5031750;28;20504;-78
2021/05/28 02:11:42;;;;;;;1.63;1.53;;;14.00;99.90;;;;;;5032269;28;20510;-78
2021/05/28 02:14:11;;;;;;;1.53;1.40;;;14.00;99.90;;;;;;5031184;28;20470;-78
2021/05/28 02:16:38;;;;;;;2.40;1.60;;;14.10;99.90;;;;;;5032222;28;21182;-80
2021/05/28 02:19:08;;;;;;;2.97;1.80;;;14.10;99.90;;;;;;5031118;28;20471;-80
2021/05/28 02:21:37;;;;;;;1.80;1.57;;;14.10;99.90;;;;;;5012798;28;20451;-79
2021/05/28 02:24:11;;;;;;;3.10;1.50;;;14.10;99.90;;;;;;5028218;28;20475;-78
2021/05/28 02:26:39;;;;;;;1.60;1.50;;;14.00;99.90;;;;;;5029206;28;20532;-78
2021/05/28 02:29:07;;;;;;;3.20;1.80;;;14.10;99.90;;;;;;5021379;28;20960;-80
2021/05/28 02:31:35;;;;;;;3.20;1.50;;;14.00;99.90;;;;;;5030899;28;20467;-78
2021/05/28 02:34:03;;;;;;;3.90;1.70;;;14.00;99.90;;;;;;5032582;28;20466;-81
2021/05/28 02:36:31;;;;;;;2.37;1.80;;;14.00;99.90;;;;;;5022989;28;20513;-79
2021/05/28 02:38:59;;;;;;;3.10;2.07;;;14.00;99.90;;;;;;5030493;28;20519;-76
2021/05/28 02:41:27;;;;;;;2.00;1.80;;;14.00;99.90;;;;;;5014082;28;20852;-82
2021/05/28 02:43:54;;;;;;;2.20;1.57;;;14.00;99.90;;;;;;5020463;28;20534;-80
2021/05/28 02:46:22;;;;;;;1.70;1.60;;;14.00;99.90;;;;;;5031788;28;20457;-78
2021/05/28 02:48:50;;;;;;;1.83;1.73;;;14.00;99.90;;;;;;5027260;28;20502;-77
2021/05/28 02:51:20;;;;;;;2.27;2.07;;;14.00;99.90;;;;;;5060364;28;20452;-78
2021/05/28 02:53:47;;;;;;;1.70;1.60;;;14.00;99.90;;;;;;5031555;28;20493;-79
2021/05/28 02:56:15;;;;;;;2.33;2.13;;;13.90;99.90;;;;;;5028161;28;20454;-78
2021/05/28 02:58:43;;;;;;;3.70;2.17;;;14.00;99.90;;;;;;5031012;28;20983;-79
2021/05/28 03:01:10;;;;;;;3.73;1.90;;;14.00;1.00;;;;;;5031704;28;20462;-80
2021/05/28 03:03:38;;;;;;;3.33;2.60;;;13.90;1.00;;;;;;5031102;28;20475;-81
2021/05/28 03:06:07;;;;;;;3.07;1.80;;;14.00;1.00;;;;;;5031700;28;20835;-79
2021/05/28 03:08:34;;;;;;;3.80;1.67;;;14.00;99.90;;;;;;5029613;28;20973;-80
2021/05/28 03:11:02;;;;;;;3.73;1.90;;;13.90;99.90;;;;;;5029953;28;20538;-78
2021/05/28 03:13:29;;;;;;;2.43;2.23;;;14.00;1.00;;;;;;5028929;28;20519;-80
2021/05/28 03:15:57;;;;;;;2.43;2.20;;;13.90;1.00;;;;;;5030324;28;20480;-79
2021/05/28 03:18:33;;;;;;;8.33;4.30;;;13.90;1.00;;;;;;5028718;28;20483;-80
2021/05/28 03:21:19;;;;;;;4.50;3.30;;;14.00;1.00;;;;;;5018783;28;20851;-82
2021/05/28 03:23:48;;;;;;;2.57;2.37;;;14.00;1.00;;;;;;5024322;28;20493;-79
2021/05/28 03:26:15;;;;;;;3.73;2.97;;;14.00;1.00;;;;;;5029291;28;20448;-79
2021/05/28 03:28:43;;;;;;;3.30;3.00;;;14.00;1.00;;;;;;5017346;28;20513;-79
2021/05/28 03:31:11;;;;;;;4.20;2.97;;;14.00;1.00;;;;;;5022965;28;20447;-80
2021/05/28 03:33:39;;;;;;;3.97;3.20;;;14.00;99.90;;;;;;5042984;28;20564;-79
2021/05/28 03:36:07;;;;;;;3.03;2.50;;;13.90;99.90;;;;;;5029300;28;20447;-80
2021/05/28 03:38:35;;;;;;;3.60;3.20;;;13.90;99.90;;;;;;5029346;28;20472;-80
2021/05/28 03:41:04;;;;;;;3.23;2.43;;;13.90;99.90;;;;;;5027640;28;20450;-79
2021/05/28 03:43:32;;;;;;;3.13;2.87;;;13.90;1.00;;;;;;5022937;28;20471;-82
2021/05/28 03:45:59;;;;;;;3.43;2.93;;;13.80;1.00;;;;;;5031070;28;20463;-77
2021/05/28 03:48:27;;;;;;;3.33;2.60;;;13.80;1.00;;;;;;5028428;28;20461;-85
2021/05/28 03:50:55;;;;;;;3.70;2.67;;;13.70;1.00;;;;;;5062420;28;20454;-82
2021/05/28 03:53:22;;;;;;;2.23;1.97;;;13.60;1.00;;;;;;5029066;28;20475;-79
2021/05/28 03:55:50;;;;;;;2.70;2.50;;;13.60;1.00;;;;;;5015242;28;20876;-79
2021/05/28 03:58:18;;;;;;;2.80;2.50;;;13.60;1.00;;;;;;5029742;28;20510;-79
2021/05/28 04:00:46;;;;;;;2.73;2.50;;;13.60;1.00;;;;;;5028380;28;20464;-81
2021/05/28 04:03:13;;;;;;;3.40;2.50;;;13.50;1.00;;;;;;5024975;28;20476;-79
2021/05/28 04:05:41;;;;;;;2.60;2.40;;;13.50;1.00;;;;;;5031053;28;20504;-78
2021/05/28 04:08:09;;;;;;;2.30;2.10;;;13.50;1.00;;;;;;5027820;28;20926;-80
2021/05/28 04:10:36;;;;;;;4.03;2.87;;;13.40;1.00;;;;;;5030697;28;20781;-80
2021/05/28 04:13:04;;;;;;;2.20;2.00;;;13.40;1.00;;;;;;5029928;28;20975;-76
2021/05/28 04:15:33;;;;;;;2.67;2.47;;;13.40;1.00;;;;;;5030364;28;21033;-77
2021/05/28 04:18:01;;;;;;;4.40;2.83;;;13.40;1.00;;;;;;5028901;28;20513;-76
2021/05/28 04:20:28;;;;;;;3.40;2.70;;;13.40;1.00;;;;;;5031317;28;20480;-77
2021/05/28 04:22:56;;;;;;;4.10;2.87;;;13.40;1.00;;;;;;5035631;28;21049;-77
2021/05/28 04:25:24;;;;;;;3.07;2.70;;;13.30;1.00;;;;;;5032383;28;20479;-78
2021/05/28 04:27:51;;;;;;;3.83;2.80;;;13.30;1.00;;;;;;5028630;28;20553;-78
2021/05/28 04:30:23;;;;;;;4.10;3.50;;;13.30;1.00;;;;;;5029359;28;20479;-81
2021/05/28 04:32:53;;;;;;;3.07;2.87;;;13.30;1.00;;;;;;5023216;28;20282;-79
2021/05/28 04:35:21;;;;;;;3.23;3.03;;;13.30;1.00;;;;;;5024380;28;20453;-77
2021/05/28 04:37:49;;;;;;;3.90;3.07;;;13.40;1.00;;;;;;5026341;28;20426;-79
2021/05/28 04:40:18;;;;;;;3.60;3.30;;;13.30;1.00;;;;;;5027625;28;20484;-78
2021/05/28 04:42:46;;;;;;;3.53;3.20;;;13.40;1.00;;;;;;5026862;28;20461;-80
2021/05/28 04:45:15;;;;;;;3.17;2.90;;;13.40;1.00;;;;;;5044363;28;20481;-80
2021/05/28 04:47:42;;;;;;;4.00;3.60;;;13.40;1.00;;;;;;5030564;28;20487;-80
2021/05/28 04:50:12;;;;;;;3.90;3.60;;;13.40;1.00;;;;;;5034446;28;20544;-81
2021/05/28 04:52:42;;;;;;;3.40;2.93;;;13.40;1.00;;;;;;5030927;28;20467;-81
2021/05/28 04:55:10;;;;;;;3.47;3.17;;;13.30;1.00;;;;;;5031682;28;20568;-81
2021/05/28 04:57:38;;;;;;;4.07;3.67;;;13.40;20.80;;;;;;5029453;28;21184;-79
2021/05/28 05:00:08;;;;;;;4.70;3.60;;;13.40;42.30;;;;;;5032513;28;20477;-80
2021/05/28 05:02:36;;;;;;;6.13;3.53;;;13.40;32.00;;;;;;5032708;28;20498;-81
2021/05/28 05:05:05;;;;;;;5.80;4.60;;;13.40;87.90;;;;;;5034615;28;20793;-81
2021/05/28 05:07:34;;;;;;;4.60;3.80;;;13.50;24.90;;;;;;5030677;28;20444;-81
2021/05/28 05:10:03;;;;;;;4.00;3.60;;;13.50;1.00;;;;;;5049034;28;20585;-80
2021/05/28 05:12:30;;;;;;;3.90;3.53;;;13.60;1.00;;;;;;5035130;28;20487;-81
2021/05/28 05:14:58;;;;;;;6.13;3.57;;;13.60;1.00;;;;;;5035204;28;20466;-81
2021/05/28 05:17:26;;;;;;;4.97;4.47;;;13.60;1.00;;;;;;5033667;28;20445;-81
2021/05/28 05:19:53;;;;;;;3.10;2.90;;;13.60;1.00;;;;;;5032938;28;20478;-80
2021/05/28 05:22:21;;;;;;;3.70;3.40;;;13.60;1.00;;;;;;5034147;28;20466;-81
2021/05/28 05:24:50;;;;;;;4.10;3.80;;;13.70;1.00;;;;;;5034567;28;20538;-80
2021/05/28 05:27:19;;;;;;;5.97;4.33;;;13.60;1.00;;;;;;5015160;28;20448;-81
2021/05/28 05:29:47;;;;;;;4.30;3.90;;;13.70;1.00;;;;;;5012654;28;20439;-79
2021/05/28 05:32:15;;;;;;;4.27;3.70;;;13.60;1.00;;;;;;5029102;28;20435;-81
2021/05/28 05:34:42;;;;;;;6.20;4.40;;;13.70;1.00;;;;;;5034334;28;20527;-80
2021/05/28 05:37:10;;;;;;;5.37;3.80;;;13.70;1.00;;;;;;5034577;28;20933;-81
2021/05/28 05:39:38;;;;;;;4.67;4.27;;;13.60;1.00;;;;;;5032879;28;20470;-79
2021/05/28 05:42:08;;;;;;;4.73;3.20;;;13.70;1.00;;;;;;5032748;28;21079;-79
2021/05/28 05:44:36;;;;;;;5.17;3.60;;;13.70;1.00;;;;;;5038443;28;20471;-79
2021/05/28 05:47:03;;;;;;;3.63;3.33;;;13.70;1.00;;;;;;5034886;28;20930;-81
2021/05/28 05:49:31;;;;;;;4.20;3.17;;;13.70;1.00;;;;;;5029581;28;20523;-79
2021/05/28 05:51:58;;;;;;;3.60;3.30;;;13.80;1.00;;;;;;5031842;28;21004;-81
2021/05/28 05:54:26;;;;;;;5.40;4.00;;;13.70;1.00;;;;;;5034476;28;20516;-82
2021/05/28 05:56:54;;;;;;;3.70;3.30;;;13.80;1.00;;;;;;5034422;28;20438;-80
2021/05/28 05:59:23;;;;;;;4.23;3.83;;;13.80;1.00;;;;;;5064475;28;20479;-81
2021/05/28 06:01:51;;;;;;;4.30;3.53;;;13.80;1.00;;;;;;5034237;28;20973;-80
2021/05/28 06:04:19;;;;;;;4.67;4.20;;;13.80;1.00;;;;;;5033519;28;20537;-81
2021/05/28 06:06:46;;;;;;;4.50;4.10;;;13.80;1.00;;;;;;5031197;28;20446;-80
2021/05/28 06:09:14;;;;;;;3.90;3.00;;;13.90;1.00;;;;;;5030767;28;20512;-80
2021/05/28 06:11:42;;;;;;;5.80;3.50;;;13.90;1.00;;;;;;5032754;28;20454;-80
2021/05/28 06:14:09;;;;;;;5.63;3.20;;;14.00;1.00;;;;;;5031897;28;21015;-81
2021/05/28 06:16:38;;;;;;;4.90;3.43;;;13.90;1.00;;;;;;5033116;28;20450;-80
2021/05/28 06:19:06;;;;;;;3.70;3.40;;;14.00;1.00;;;;;;5032435;28;20505;-82
2021/05/28 06:21:34;;;;;;;4.47;3.00;;;14.10;1.00;;;;;;5031987;28;20458;-80
2021/05/28 06:24:02;;;;;;;4.90;3.17;;;14.10;1.00;;;;;;5031688;28;20532;-80
2021/05/28 06:26:34;;;;;;;3.57;3.27;;;14.00;1.00;;;;;;5021650;28;20459;-80
2021/05/28 06:29:02;;;;;;;3.33;2.60;;;14.10;1.00;;;;;;5044013;28;20545;-80
2021/05/28 06:31:30;;;;;;;4.43;2.97;;;14.20;1.00;;;;;;5016002;28;20502;-81
2021/05/28 06:33:59;;;;;;;3.50;3.20;;;14.20;1.00;;;;;;5032169;28;20462;-81
2021/05/28 06:36:27;;;;;;;3.63;3.33;;;14.30;99.90;;;;;;5024023;28;20929;-81
2021/05/28 06:38:54;;;;;;;4.90;3.70;;;14.30;99.90;;;;;;5030191;28;21147;-81
2021/05/28 06:41:22;;;;;;;5.00;3.30;;;14.40;1.00;;;;;;5032764;28;20534;-79
2021/05/28 06:43:50;;;;;;;4.80;3.20;;;14.50;99.90;;;;;;5032481;28;20548;-81
2021/05/28 06:46:18;;;;;;;3.40;2.70;;;14.50;99.90;;;;;;5031931;28;20845;-79
2021/05/28 06:48:46;;;;;;;4.93;3.27;;;14.60;99.90;;;;;;5026365;28;20463;-80
2021/05/28 06:51:15;;;;;;;6.30;3.40;;;14.70;99.90;;;;;;5032771;28;21146;-81
2021/05/28 06:53:43;;;;;;;3.60;3.30;;;14.70;99.90;;;;;;5032882;28;20549;-79
2021/05/28 06:56:11;;;;;;;3.23;2.93;;;14.80;99.90;;;;;;5033526;28;20498;-80
2021/05/28 06:58:39;;;;;;;4.20;3.30;;;14.80;99.90;;;;;;5031769;28;20456;-79
2021/05/28 07:01:06;;;;;;;3.30;2.57;;;14.90;99.90;;;;;;5031706;28;20463;-79
2021/05/28 07:03:34;;;;;;;4.97;2.80;;;15.00;99.90;;;;;;5030632;28;20477;-80
2021/05/28 07:06:02;;;;;;;3.17;2.90;;;15.00;99.90;;;;;;5031449;28;20459;-81
2021/05/28 07:08:30;;;;;;;4.03;3.50;;;15.00;99.90;;;;;;5033004;28;20850;-80
2021/05/28 07:10:58;;;;;;;3.70;3.23;;;15.00;99.90;;;;;;5051315;28;20447;-80
2021/05/28 07:13:25;;;;;;;4.20;2.70;;;14.90;99.90;;;;;;5050152;28;20470;-79
2021/05/28 07:15:53;;;;;;;4.20;3.70;;;15.00;99.90;;;;;;5035958;28;20440;-80
2021/05/28 07:18:21;;;;;;;7.90;3.97;;;15.00;99.90;;;;;;5020700;28;20452;-81
2021/05/28 07:20:48;;;;;;;3.43;3.10;;;15.10;99.90;;;;;;5032424;28;20467;-81
2021/05/28 07:23:19;;;;;;;3.47;3.17;;;15.10;99.90;;;;;;5032175;28;20920;-82
2021/05/28 07:25:48;;;;;;;3.33;2.87;;;15.20;99.90;;;;;;5032042;28;20463;-80
2021/05/28 07:28:16;;;;;;;3.60;2.93;;;15.20;99.90;;;;;;5029667;28;20448;-80
2021/05/28 07:30:43;;;;;;;4.00;2.43;;;15.30;99.90;;;;;;5032253;28;20429;-81
2021/05/28 07:33:11;;;;;;;5.20;2.63;;;15.40;99.90;;;;;;5031282;28;20464;-81
2021/05/28 07:35:39;;;;;;;5.17;3.03;;;15.50;99.90;;;;;;5031957;28;20453;-81
2021/05/28 07:38:06;;;;;;;3.10;2.80;;;15.50;99.90;;;;;;5029710;28;20522;-79
2021/05/28 07:40:35;;;;;;;2.80;2.57;;;15.60;99.90;;;;;;5032675;28;20493;-81
2021/05/28 07:43:03;;;;;;;2.70;2.50;;;15.70;99.90;;;;;;5030308;28;20446;-81
2021/05/28 07:45:31;;;;;;;2.70;2.37;;;15.80;99.90;;;;;;5030739;28;20467;-80
2021/05/28 07:47:59;;;;;;;5.13;2.70;;;15.80;99.90;;;;;;5031455;28;20441;-80
2021/05/28 07:50:27;;;;;;;3.30;3.00;;;15.90;99.90;;;;;;5030515;28;20454;-80
2021/05/28 07:52:55;;;;;;;2.50;1.80;;;15.90;99.90;;;;;;5035048;28;20432;-80
2021/05/28 07:55:22;;;;;;;2.23;2.03;;;16.00;99.90;;;;;;5035038;28;20448;-80
2021/05/28 07:57:51;;;;;;;4.27;3.60;;;16.00;99.90;;;;;;5034197;28;20466;-81
2021/05/28 08:00:20;;;;;;;1.97;1.87;;;16.20;99.90;;;;;;5019496;28;20467;-80
2021/05/28 08:02:48;;;;;;;3.63;2.57;;;16.20;99.90;;;;;;5036394;28;20932;-81
2021/05/28 08:05:15;;;;;;;2.10;1.90;;;16.30;99.90;;;;;;5035634;28;21043;-80
2021/05/28 08:07:43;;;;;;;2.00;1.50;;;16.30;99.90;;;;;;5033336;28;20444;-81
2021/05/28 08:10:11;;;;;;;5.30;2.03;;;16.30;99.90;;;;;;5034009;28;20484;-80
2021/05/28 08:12:39;;;;;;;2.70;1.77;;;16.30;99.90;;;;;;5035490;28;20519;-80
2021/05/28 08:15:08;;;;;;;1.70;1.60;;;16.30;99.90;;;;;;5034029;28;20538;-80
2021/05/28 08:17:57;;;;;;;2.00;1.80;;;16.20;99.90;;;;;;5034268;28;20871;-80
2021/05/28 08:20:25;;;;;;;3.07;1.60;;;16.40;99.90;;;;;;5035087;28;21043;-80
2021/05/28 08:22:54;;;;;;;2.23;1.93;;;16.50;99.90;;;;;;5051438;28;20438;-81
2021/05/28 08:25:22;;;;;;;2.27;2.00;;;16.50;99.90;;;;;;5034970;28;20526;-80
2021/05/28 08:27:50;;;;;;;4.03;2.40;;;16.50;99.90;;;;;;5035084;28;20444;-79
2021/05/28 08:30:18;;;;;;;1.63;1.53;;;16.50;99.90;;;;;;5033961;28;20487;-80
2021/05/28 08:32:46;;;;;;;3.87;1.80;;;16.50;99.90;;;;;;5033352;28;20459;-81
2021/05/28 08:35:15;;;;;;;4.13;2.10;;;16.70;99.90;;;;;;5027847;28;20523;-80
2021/05/28 08:37:43;;;;;;;2.73;2.20;;;16.60;99.90;;;;;;5050394;28;20988;-81
2021/05/28 08:40:12;;;;;;;3.13;2.00;;;16.60;99.90;;;;;;5031185;28;21206;-79
2021/05/28 08:42:40;;;;;;;5.47;2.00;;;16.50;99.90;;;;;;5034745;28;20446;-80
2021/05/28 08:45:09;;;;;;;2.37;2.17;;;16.50;99.90;;;;;;5034216;28;20461;-80
2021/05/28 08:47:40;;;;;;;4.50;1.93;;;16.60;99.90;;;;;;5033215;28;20475;-79
2021/05/28 08:50:10;;;;;;;2.73;2.53;;;16.60;99.90;;;;;;5029151;28;20445;-80
2021/05/28 08:52:38;;;;;;;5.20;2.57;;;16.60;99.90;;;;;;5032580;28;20454;-81
2021/05/28 08:55:07;;;;;;;5.63;2.50;;;16.60;99.90;;;;;;5033209;28;20502;-80
2021/05/28 08:57:35;;;;;;;2.20;1.90;;;16.60;99.90;;;;;;5035634;28;20827;-79
2021/05/28 09:00:04;;;;;;;4.17;2.33;;;16.70;99.90;;;;;;5034010;28;20509;-80
2021/05/28 09:02:34;;;;;;;5.23;2.60;;;16.70;99.90;;;;;;5035083;28;20928;-80
2021/05/28 09:05:11;;;;;;;5.27;2.50;;;16.70;99.90;;;;;;5033167;28;21118;-81
2021/05/28 09:07:41;;;;;;;2.90;2.40;;;16.70;99.90;;;;;;5057633;28;20536;-80
2021/05/28 09:10:35;;;;;;;4.50;2.50;;;16.60;99.90;;;;;;5033119;28;21004;-80
2021/05/28 09:13:07;;;;;;;2.83;1.93;;;16.60;99.90;;;;;;5028510;28;20445;-80
2021/05/28 09:15:35;;;;;;;7.53;3.10;;;16.60;99.90;;;;;;5032920;28;20438;-80
2021/05/28 09:18:03;;;;;;;3.33;2.80;;;16.50;99.90;;;;;;5033290;28;20437;-79
2021/05/28 09:20:30;;;;;;;2.30;1.83;;;16.60;99.90;;;;;;5034138;28;20665;-79
2021/05/28 09:23:14;;;;;;;2.53;2.10;;;16.60;99.90;;;;;;5032115;28;20504;-80
2021/05/28 09:26:01;;;;;;;3.90;2.50;;;16.60;99.90;;;;;;5032810;28;20451;-79
2021/05/28 09:28:35;;;;;;;3.10;2.87;;;16.70;99.90;;;;;;5032508;28;20443;-80
2021/05/28 09:31:04;;;;;;;3.20;2.43;;;16.70;99.90;;;;;;5034566;28;20450;-79
2021/05/28 09:33:34;;;;;;;2.67;2.03;;;16.70;99.90;;;;;;5031947;28;20499;-79
2021/05/28 09:36:13;;;;;;;2.80;2.20;;;16.70;99.90;;;;;;5013156;28;20473;-80
2021/05/28 09:38:54;;;;;;;1.70;1.60;;;16.70;99.90;;;;;;5020283;28;20440;-80
2021/05/28 09:41:36;;;;;;;2.80;1.93;;;16.80;99.90;;;;;;5027103;28;20465;-79
2021/05/28 09:44:26;;;;;;;2.87;2.67;;;16.80;99.90;;;;;;5033825;28;20460;-81
2021/05/28 09:47:17;;;;;;;2.70;1.67;;;16.90;99.90;;;;;;5034072;28;20537;-80
2021/05/28 09:49:46;;;;;;;3.93;2.53;;;17.00;99.90;;;;;;5030653;28;20458;-81
2021/05/28 09:52:16;;;;;;;2.70;2.50;;;17.00;99.90;;;;;;5033812;28;20514;-80
2021/05/28 09:54:56;;;;;;;3.03;2.40;;;17.00;99.90;;;;;;5033950;28;20975;-80
2021/05/28 09:57:29;;;;;;;2.67;2.13;;;17.00;99.90;;;;;;5032904;28;20434;-82
2021/05/28 09:59:57;;;;;;;2.50;2.30;;;17.00;99.90;;;;;;5033176;28;20430;-81
2021/05/28 10:02:29;;;;;;;4.20;3.10;;;17.00;99.90;;;;;;5032392;28;21001;-81
2021/05/28 10:04:57;;;;;;;3.17;2.40;;;16.90;99.90;;;;;;5033706;28;20467;-80
2021/05/28 10:07:26;;;;;;;6.57;2.43;;;16.90;99.90;;;;;;5031987;28;20905;-80
2021/05/28 10:09:56;;;;;;;2.47;2.30;;;16.90;99.90;;;;;;5033267;28;20446;-81
2021/05/28 10:12:26;;;;;;;5.30;2.50;;;17.10;99.90;;;;;;5032203;28;20447;-80
2021/05/28 10:14:54;;;;;;;9.07;4.97;;;17.10;99.90;;;;;;5031825;28;20474;-81
2021/05/28 10:17:21;;;;;;;2.70;2.50;;;17.20;99.90;;;;;;5032627;28;20816;-80
2021/05/28 10:19:50;;;;;;;2.50;2.30;;;17.30;99.90;;;;;;5033555;28;20458;-82
2021/05/28 10:22:21;;;;;;;2.63;2.40;;;17.30;99.90;;;;;;5033713;28;20786;-80
2021/05/28 10:24:49;;;;;;;3.17;2.83;;;17.30;99.90;;;;;;5033681;28;20985;-83
2021/05/28 10:27:22;;;;;;;3.20;2.50;;;17.30;99.90;;;;;;5032905;28;20440;-80
2021/05/28 10:29:51;;;;;;;4.23;2.40;;;17.30;99.90;;;;;;5031271;28;20442;-79
2021/05/28 10:32:19;;;;;;;3.93;2.07;;;17.40;99.90;;;;;;5030410;28;20445;-81
2021/05/28 10:35:09;;;;;;;2.60;2.10;;;17.40;99.90;;;;;;5033474;28;20469;-80
2021/05/28 10:37:37;;;;;;;2.80;1.87;;;17.50;99.90;;;;;;5031951;28;20450;-80
2021/05/28 10:40:24;;;;;;;1.77;1.67;;;17.60;99.90;;;;;;5032147;28;20763;-80
2021/05/28 10:43:00;;;;;;;2.20;1.80;;;17.60;99.90;;;;;;5032615;28;20493;-79
2021/05/28 10:45:57;;;;;;;3.07;2.30;;;17.60;99.90;;;;;;5013449;28;20776;-80
2021/05/28 10:49:06;;;;;;;2.00;1.87;;;17.60;99.90;;;;;;5016510;28;20463;-80
2021/05/28 10:52:00;;;;;;;3.20;1.80;;;17.50;99.90;;;;;;5027498;28;20844;-80
2021/05/28 10:54:31;;;;;;;2.40;2.20;;;17.60;99.90;;;;;;5024888;28;20466;-79
2021/05/28 10:57:29;;;;;;;2.47;2.13;;;17.60;99.90;;;;;;5032493;28;20483;-80
2021/05/28 11:00:00;;;;;;;4.27;1.93;;;17.80;99.90;;;;;;5032359;28;20475;-79
2021/05/28 11:02:53;;;;;;;7.27;3.40;;;17.80;99.90;;;;;;5032899;28;20465;-81
2021/05/28 11:05:44;;;;;;;2.20;1.90;;;17.90;99.90;;;;;;5033053;28;20463;-82
2021/05/28 11:08:44;;;;;;;1.67;1.57;;;18.00;99.90;;;;;;5031041;28;20446;-81
2021/05/28 11:12:03;;;;;;;2.03;1.93;;;18.10;99.90;;;;;;5018423;28;20987;-81
2021/05/28 11:14:33;;;;;;;2.57;1.73;;;18.30;99.90;;;;;;5032071;28;20476;-81
2021/05/28 11:17:18;;;;;;;1.80;1.70;;;18.20;99.90;;;;;;5032455;28;20576;-77
2021/05/28 11:19:52;;;;;;;1.50;1.40;;;18.10;99.90;;;;;;5032026;28;20435;-80
2021/05/28 11:22:32;;;;;;;4.10;1.70;;;18.10;99.90;;;;;;5032246;28;21139;-80
2021/05/28 11:25:03;;;;;;;3.00;1.60;;;18.10;99.90;;;;;;5032224;28;20475;-79
2021/05/28 11:27:42;;;;;;;1.60;1.50;;;18.10;99.90;;;;;;5031915;28;20443;-81
2021/05/28 11:30:22;;;;;;;2.80;1.30;;;18.10;99.90;;;;;;5029789;28;20534;-81
2021/05/28 11:32:51;;;;;;;1.50;1.40;;;18.30;99.90;;;;;;5030667;28;20496;-81
2021/05/28 11:35:20;;;;;;;2.63;1.43;;;18.30;99.90;;;;;;5030441;28;21247;-80
2021/05/28 11:37:56;;;;;;;2.43;1.60;;;18.30;99.90;;;;;;5032370;28;20438;-80
2021/05/28 11:40:26;;;;;;;1.60;1.50;;;18.30;99.90;;;;;;5031879;28;20462;-80
2021/05/28 11:43:03;;;;;;;2.93;1.43;;;18.30;99.90;;;;;;5032253;28;20873;-79
2021/05/28 11:45:31;;;;;;;3.47;2.00;;;18.40;99.90;;;;;;5031534;28;21327;-80
2021/05/28 11:48:01;;;;;;;1.50;1.40;;;18.40;99.90;;;;;;5030216;28;20448;-79
2021/05/28 11:50:39;;;;;;;1.63;1.40;;;18.50;99.90;;;;;;5030125;28;20437;-80
2021/05/28 11:53:08;;;;;;;2.60;1.40;;;18.50;99.90;;;;;;5030337;28;20436;-80
2021/05/28 11:55:45;;;;;;;1.60;1.50;;;18.70;99.90;;;;;;5032393;28;20444;-80
2021/05/28 11:58:13;;;;;;;2.63;1.23;;;18.70;99.90;;;;;;5031086;28;20432;-80
2021/05/28 12:00:41;;;;;;;1.80;1.40;;;18.80;99.90;;;;;;5032227;28;20440;-80
2021/05/28 12:03:13;;;;;;;1.40;1.30;;;18.90;99.90;;;;;;5031532;28;20464;-81
2021/05/28 12:05:42;;;;;;;2.13;1.93;;;19.00;99.90;;;;;;5030167;28;20471;-81
2021/05/28 12:08:19;;;;;;;2.53;1.33;;;19.00;99.90;;;;;;5027401;28;20456;-80
2021/05/28 12:10:48;;;;;;;1.67;1.57;;;19.00;99.90;;;;;;5031357;28;20463;-79
2021/05/28 12:13:17;;;;;;;1.70;1.60;;;19.10;99.90;;;;;;5031490;28;20468;-82
2021/05/28 12:15:46;;;;;;;1.90;1.80;;;19.10;99.90;;;;;;5032008;28;20444;-81
2021/05/28 12:18:21;;;;;;;3.43;1.93;;;19.10;99.90;;;;;;5030993;28;20444;-80
2021/05/28 12:20:50;;;;;;;6.03;1.97;;;19.10;99.90;;;;;;5032067;28;20441;-81
2021/05/28 12:23:23;;;;;;;3.30;1.70;;;19.20;99.90;;;;;;5031035;28;20534;-81
2021/05/28 12:25:55;;;;;;;2.60;2.37;;;19.30;99.90;;;;;;5031928;28;20506;-81
2021/05/28 12:28:30;;;;;;;2.07;1.37;;;19.30;99.90;;;;;;5030330;28;20855;-81
2021/05/28 12:31:01;;;;;;;2.33;1.50;;;19.20;99.90;;;;;;5030076;28;21162;-81
2021/05/28 12:33:32;;;;;;;2.63;1.53;;;19.30;99.90;;;;;;5030914;28;20464;-80
2021/05/28 12:36:02;;;;;;;2.80;1.87;;;19.40;99.90;;;;;;5030676;28;20467;-80
2021/05/28 12:38:35;;;;;;;3.60;1.77;;;19.30;99.90;;;;;;5031428;28;20436;-80
2021/05/28 12:41:04;;;;;;;2.40;2.10;;;19.30;99.90;;;;;;5035483;28;20452;-81
2021/05/28 12:43:34;;;;;;;1.90;1.80;;;19.20;99.90;;;;;;5033775;28;20498;-81
2021/05/28 12:46:01;;;;;;;2.50;1.93;;;19.10;99.90;;;;;;5034732;28;20557;-80
2021/05/28 12:48:44;;;;;;;2.07;1.87;;;19.00;99.90;;;;;;5032794;28;20471;-81
2021/05/28 12:51:13;;;;;;;1.50;1.40;;;18.90;99.90;;;;;;5032700;28;20944;-81
2021/05/28 12:53:42;;;;;;;2.83;1.73;;;18.90;99.90;;;;;;5034477;28;20448;-80
2021/05/28 12:56:18;;;;;;;1.40;1.30;;;18.90;99.90;;;;;;5012892;28;21035;-79
2021/05/28 12:58:49;;;;;;;1.80;1.70;;;18.90;99.90;;;;;;5038131;28;20531;-81
2021/05/28 13:01:18;;;;;;;1.90;1.80;;;18.80;99.90;;;;;;5033585;28;20452;-81
2021/05/28 13:03:50;;;;;;;3.03;1.30;;;18.80;99.90;;;;;;5033595;28;20678;-80
2021/05/28 13:06:32;;;;;;;2.27;1.37;;;18.70;99.90;;;;;;5025958;28;20472;-81